createdAt,value
2022-09-13T00:02:14.035Z,12.63
2022-09-13T00:04:41.146Z,14.20
2022-09-13T00:07:07.707Z,15.73
2022-09-13T00:09:34.271Z,17.10
2022-09-13T00:12:00.920Z,15.15
2022-09-13T00:14:27.598Z,13.95
2022-09-13T00:16:54.242Z,14.03
2022-09-13T00:19:20.783Z,16.92
2022-09-13T00:21:48.570Z,13.68
2022-09-13T00:24:15.099Z,13.15
2022-09-13T00:26:41.651Z,14.48
2022-09-13T00:29:08.234Z,14.80
2022-09-13T00:31:34.918Z,15.38
2022-09-13T00:34:01.801Z,12.85
2022-09-13T00:36:29.081Z,14.43
2022-09-13T00:38:55.711Z,15.52
2022-09-13T00:41:22.354Z,14.63
2022-09-13T00:44:00.707Z,11.45
2022-09-13T00:46:48.612Z,19.52
2022-09-13T00:49:29.086Z,15.73
2022-09-13T00:51:59.920Z,16.27
2022-09-13T00:54:33.246Z,12.40
2022-09-13T00:57:04.544Z,12.05
2022-09-13T00:59:40.778Z,14.65
2022-09-13T01:02:07.719Z,13.15
2022-09-13T01:04:37.000Z,14.23
2022-09-13T01:07:08.603Z,14.30
2022-09-13T01:09:39.976Z,11.88
2022-09-13T01:12:21.550Z,11.35
2022-09-13T01:14:49.434Z,17.13
2022-09-13T01:17:16.142Z,14.13
2022-09-13T01:19:42.810Z,16.07
2022-09-13T01:22:32.015Z,15.23
2022-09-13T01:25:13.476Z,15.23
2022-09-13T01:27:51.855Z,15.20
2022-09-13T01:30:28.745Z,14.98
2022-09-13T01:33:05.957Z,14.37
2022-09-13T01:36:06.900Z,11.73
2022-09-13T01:38:42.313Z,10.90
2022-09-13T01:41:34.148Z,15.00
2022-09-13T01:44:42.887Z,13.23
2022-09-13T01:47:27.772Z,14.37
2022-09-13T01:50:09.050Z,12.95
2022-09-13T01:53:00.757Z,12.35
2022-09-13T01:55:48.518Z,12.13
2022-09-13T01:58:28.576Z,14.77
2022-09-13T02:01:08.377Z,13.93
2022-09-13T02:03:44.526Z,10.75
2022-09-13T02:06:15.973Z,19.60
2022-09-13T02:08:46.573Z,17.55
2022-09-13T02:11:16.354Z,14.10
2022-09-13T02:13:49.504Z,15.17
2022-09-13T02:16:41.624Z,14.25
2022-09-13T02:19:20.105Z,17.08
2022-09-13T02:21:52.341Z,14.35
2022-09-13T02:24:28.075Z,14.73
2022-09-13T02:26:56.394Z,17.20
2022-09-13T02:29:28.881Z,14.60
2022-09-13T02:32:06.562Z,18.05
2022-09-13T02:34:39.155Z,15.15
2022-09-13T02:37:09.069Z,12.10
2022-09-13T02:39:42.106Z,14.73
2022-09-13T02:42:17.167Z,13.80
2022-09-13T02:44:48.053Z,12.90
2022-09-13T02:48:00.108Z,14.15
2022-09-13T02:50:59.808Z,14.77
2022-09-13T02:53:42.032Z,13.57
2022-09-13T02:56:11.354Z,14.60
2022-09-13T02:58:56.912Z,13.25
2022-09-13T03:01:24.823Z,15.85
2022-09-13T03:03:54.292Z,16.13
2022-09-13T03:06:25.292Z,14.27
2022-09-13T03:08:53.364Z,12.40
2022-09-13T03:11:49.207Z,14.95
2022-09-13T03:14:46.472Z,13.30
2022-09-13T03:17:27.736Z,15.68
2022-09-13T03:20:12.749Z,14.43
2022-09-13T03:23:20.199Z,12.55
2022-09-13T03:26:01.779Z,19.45
2022-09-13T03:28:55.000Z,13.02
2022-09-13T03:31:49.295Z,18.33
2022-09-13T03:34:44.367Z,14.37
2022-09-13T03:37:25.348Z,14.32
2022-09-13T03:40:00.503Z,13.18
2022-09-13T03:42:48.170Z,18.42
2022-09-13T03:45:19.728Z,14.40
2022-09-13T03:47:49.297Z,13.13
2022-09-13T03:50:22.439Z,12.90
2022-09-13T03:52:57.212Z,14.18
2022-09-13T03:55:23.991Z,12.57
2022-09-13T03:57:50.496Z,11.32
2022-09-13T04:00:18.462Z,13.57
2022-09-13T04:02:45.079Z,15.07
2022-09-13T04:05:11.623Z,16.00
2022-09-13T04:07:38.171Z,18.92
2022-09-13T04:10:05.092Z,12.45
2022-09-13T04:12:31.911Z,14.63
2022-09-13T04:14:58.461Z,15.05
2022-09-13T04:17:25.093Z,14.93
2022-09-13T04:19:51.600Z,13.57
2022-09-13T04:22:18.154Z,12.90
2022-09-13T04:24:44.929Z,13.73
2022-09-13T04:27:12.555Z,14.63
2022-09-13T04:29:39.104Z,15.30
2022-09-13T04:32:05.873Z,18.45
2022-09-13T04:34:32.405Z,16.75
2022-09-13T04:36:58.982Z,13.20
2022-09-13T04:39:25.746Z,17.08
2022-09-13T04:41:54.753Z,14.13
2022-09-13T04:44:23.212Z,17.02
2022-09-13T04:46:49.971Z,14.57
2022-09-13T04:49:18.172Z,15.70
2022-09-13T04:51:44.668Z,15.30
2022-09-13T04:54:15.310Z,19.27
2022-09-13T04:56:42.640Z,16.95
2022-09-13T04:59:10.802Z,14.75
2022-09-13T05:01:38.077Z,14.70
2022-09-13T05:04:05.854Z,13.63
2022-09-13T05:06:32.361Z,13.43
2022-09-13T05:08:59.063Z,17.95
2022-09-13T05:11:27.756Z,12.88
2022-09-13T05:13:57.696Z,14.07
2022-09-13T05:16:26.470Z,18.45
2022-09-13T05:18:53.698Z,14.98
2022-09-13T05:21:21.560Z,17.48
2022-09-13T05:23:52.434Z,15.38
2022-09-13T05:26:19.196Z,13.83
2022-09-13T05:28:45.860Z,18.80
2022-09-13T05:31:21.552Z,16.77
2022-09-13T05:33:53.673Z,18.33
2022-09-13T05:36:20.278Z,13.93
2022-09-13T05:38:46.944Z,15.77
2022-09-13T05:41:13.600Z,14.65
2022-09-13T05:43:40.196Z,14.95
2022-09-13T05:46:18.083Z,14.10
2022-09-13T05:48:44.786Z,18.42
2022-09-13T05:51:14.388Z,17.30
2022-09-13T05:53:43.486Z,17.27
2022-09-13T05:56:24.415Z,15.98
2022-09-13T05:58:52.372Z,20.13
2022-09-13T06:01:25.194Z,19.17
2022-09-13T06:03:53.754Z,19.70
2022-09-13T06:06:20.927Z,21.27
2022-09-13T06:08:48.705Z,19.40
2022-09-13T06:11:15.626Z,17.40
2022-09-13T06:13:45.436Z,23.40
2022-09-13T06:16:13.958Z,19.20
2022-09-13T06:18:40.968Z,18.98
2022-09-13T06:21:17.709Z,17.88
2022-09-13T06:23:51.071Z,19.95
2022-09-13T06:26:20.421Z,20.48
2022-09-13T06:28:49.199Z,18.03
2022-09-13T06:31:18.072Z,16.30
2022-09-13T06:33:45.289Z,17.08
2022-09-13T06:36:14.695Z,23.30
2022-09-13T06:38:41.952Z,20.48
2022-09-13T06:41:14.038Z,17.17
2022-09-13T06:43:41.849Z,16.85
2022-09-13T06:46:10.491Z,23.58
2022-09-13T06:48:39.716Z,22.63
2022-09-13T06:51:09.625Z,19.95
2022-09-13T06:53:37.520Z,21.43
2022-09-13T06:56:05.459Z,22.60
2022-09-13T06:58:33.181Z,19.25
2022-09-13T07:01:12.780Z,18.23
2022-09-13T07:03:47.947Z,20.40
2022-09-13T07:06:19.119Z,22.77
2022-09-13T07:08:49.479Z,20.40
2022-09-13T07:11:20.723Z,21.92
2022-09-13T07:13:52.123Z,17.75
2022-09-13T07:16:20.757Z,24.05
2022-09-13T07:18:54.619Z,18.67
2022-09-13T07:21:22.414Z,21.38
2022-09-13T07:23:49.276Z,24.25
2022-09-13T07:26:16.333Z,20.45
2022-09-13T07:28:45.346Z,21.17
2022-09-13T07:31:20.832Z,25.17
2022-09-13T07:33:52.934Z,20.88
2022-09-13T07:36:19.572Z,21.67
2022-09-13T07:38:46.172Z,21.02
2022-09-13T07:41:17.514Z,21.40
2022-09-13T07:43:44.751Z,21.77
2022-09-13T07:46:14.694Z,18.88
2022-09-13T07:48:43.004Z,18.80
2022-09-13T07:51:18.663Z,20.67
2022-09-13T07:53:45.980Z,22.00
2022-09-13T07:56:15.202Z,22.37
2022-09-13T07:58:43.933Z,20.25
2022-09-13T08:01:19.621Z,20.10
2022-09-13T08:03:54.343Z,18.23
2022-09-13T08:06:21.621Z,23.50
2022-09-13T08:08:48.566Z,22.23
2022-09-13T08:11:23.910Z,23.20
2022-09-13T08:13:52.599Z,21.33
2022-09-13T08:16:21.252Z,21.65
2022-09-13T08:18:50.280Z,19.70
2022-09-13T08:21:17.780Z,20.17
2022-09-13T08:23:45.033Z,22.67
2022-09-13T08:26:12.205Z,22.33
2022-09-13T08:28:40.827Z,19.35
2022-09-13T08:31:13.906Z,20.90
2022-09-13T08:33:47.431Z,20.00
2022-09-13T08:36:15.642Z,17.50
2022-09-13T08:38:50.223Z,17.35
2022-09-13T08:41:42.369Z,14.10
2022-09-13T08:44:30.191Z,18.58
2022-09-13T08:47:06.497Z,10.50
2022-09-13T08:49:45.128Z,12.68
2022-09-13T08:52:32.999Z,12.68
2022-09-13T08:55:06.942Z,10.40
2022-09-13T08:57:44.536Z,11.70
2022-09-13T09:00:32.996Z,13.97
2022-09-13T09:03:18.161Z,8.93
2022-09-13T09:05:50.308Z,11.40
2022-09-13T09:08:43.186Z,12.20
2022-09-13T09:11:36.190Z,15.25
2022-09-13T09:14:25.875Z,14.33
2022-09-13T09:16:57.366Z,12.35
2022-09-13T09:20:16.821Z,14.10
2022-09-13T09:22:45.077Z,13.52
2022-09-13T09:25:12.618Z,15.35
2022-09-13T09:27:39.213Z,16.57
2022-09-13T09:30:06.886Z,11.82
2022-09-13T09:32:34.000Z,12.35
2022-09-13T09:35:31.321Z,9.48
2022-09-13T09:38:03.708Z,12.95
2022-09-13T09:40:33.874Z,14.57
2022-09-13T09:43:01.799Z,14.98
2022-09-13T09:45:32.249Z,12.63
2022-09-13T09:48:05.114Z,11.38
2022-09-13T09:50:37.044Z,11.43
2022-09-13T09:53:18.654Z,9.27
2022-09-13T09:55:57.545Z,8.73
2022-09-13T09:58:45.148Z,11.07
2022-09-13T10:01:27.545Z,9.85
2022-09-13T10:04:08.686Z,8.98
2022-09-13T10:06:37.645Z,10.67
2022-09-13T10:09:05.981Z,7.38
2022-09-13T10:11:42.896Z,11.90
2022-09-13T10:14:28.822Z,8.27
2022-09-13T10:17:04.979Z,8.93
2022-09-13T10:19:32.442Z,8.57
2022-09-13T10:22:05.813Z,8.00
2022-09-13T10:24:32.914Z,9.52
2022-09-13T10:27:00.177Z,9.50
2022-09-13T10:29:28.601Z,7.63
2022-09-13T10:31:57.884Z,6.30
2022-09-13T10:34:32.517Z,7.45
2022-09-13T10:37:20.769Z,8.70
2022-09-13T10:40:09.169Z,6.50
2022-09-13T10:42:36.409Z,6.95
2022-09-13T10:45:19.410Z,7.30
2022-09-13T10:47:49.815Z,10.52
2022-09-13T10:50:26.589Z,7.57
2022-09-13T10:52:57.741Z,7.57
2022-09-13T10:55:35.549Z,8.85
2022-09-13T10:58:01.999Z,6.47
2022-09-13T11:00:32.499Z,8.40
2022-09-13T11:03:14.098Z,8.73
2022-09-13T11:05:59.580Z,8.00
2022-09-13T11:08:49.549Z,12.15
2022-09-13T11:11:30.229Z,9.17
2022-09-13T11:15:02.548Z,8.93
2022-09-13T11:17:55.304Z,7.50
2022-09-13T11:20:40.170Z,8.90
2022-09-13T11:23:37.564Z,8.32
2022-09-13T11:26:30.034Z,11.43
2022-09-13T11:29:19.934Z,8.13
2022-09-13T11:31:59.385Z,6.45
2022-09-13T11:34:37.876Z,15.75
2022-09-13T11:37:55.998Z,7.65
2022-09-13T11:40:51.049Z,8.43
2022-09-13T11:43:42.102Z,7.95
2022-09-13T11:46:17.979Z,7.10
2022-09-13T11:49:27.320Z,9.60
2022-09-13T11:52:02.553Z,7.35
2022-09-13T11:54:51.118Z,7.97
2022-09-13T11:57:25.183Z,8.60
2022-09-13T11:59:57.679Z,7.13
2022-09-13T12:02:37.266Z,6.70
2022-09-13T12:05:24.334Z,8.73
2022-09-13T12:08:10.000Z,8.00
2022-09-13T12:10:48.918Z,7.05
2022-09-13T12:13:29.603Z,7.60
2022-09-13T12:16:06.963Z,9.07
2022-09-13T12:18:58.286Z,9.32
2022-09-13T12:21:31.064Z,6.43
2022-09-13T12:24:00.707Z,7.25
2022-09-13T12:26:31.451Z,11.27
2022-09-13T12:29:02.804Z,10.60
2022-09-13T12:31:31.366Z,9.15
2022-09-13T12:33:59.310Z,8.57
2022-09-13T12:36:47.428Z,8.93
2022-09-13T12:39:24.072Z,9.18
2022-09-13T12:42:09.195Z,8.15
2022-09-13T12:44:46.078Z,8.77
2022-09-13T12:47:45.102Z,7.60
2022-09-13T12:50:44.244Z,7.70
2022-09-13T12:53:29.871Z,11.93
2022-09-13T12:56:22.740Z,7.53
2022-09-13T12:59:03.686Z,8.50
2022-09-13T13:01:32.552Z,13.33
2022-09-13T13:04:10.311Z,7.40
2022-09-13T13:06:52.031Z,9.30
2022-09-13T13:09:29.089Z,9.77
2022-09-13T13:11:58.524Z,9.32
2022-09-13T13:14:31.335Z,7.63
2022-09-13T13:17:36.215Z,9.65
2022-09-13T13:20:41.035Z,9.00
2022-09-13T13:23:37.331Z,6.45
2022-09-13T13:26:11.736Z,7.78
2022-09-13T13:28:52.099Z,11.40
2022-09-13T13:31:24.811Z,7.78
2022-09-13T13:34:01.495Z,9.27
2022-09-13T13:36:33.642Z,9.65
2022-09-13T13:39:01.758Z,12.73
2022-09-13T13:41:34.170Z,8.70
2022-09-13T13:44:02.218Z,6.85
2022-09-13T13:46:33.125Z,7.82
2022-09-13T13:49:31.708Z,7.53
2022-09-13T13:52:09.946Z,9.23
2022-09-13T13:54:42.752Z,9.80
2022-09-13T13:57:27.557Z,7.38
2022-09-13T14:00:16.086Z,6.25
2022-09-13T14:02:50.215Z,8.13
2022-09-13T14:05:29.152Z,8.25
2022-09-13T14:08:14.277Z,12.00
2022-09-13T14:10:45.522Z,6.53
2022-09-13T14:13:32.490Z,7.32
2022-09-13T14:16:11.403Z,8.80
2022-09-13T14:18:46.135Z,8.73
2022-09-13T14:21:29.943Z,5.03
2022-09-13T14:24:23.894Z,8.95
2022-09-13T14:26:57.922Z,9.48
2022-09-13T14:29:26.295Z,6.93
2022-09-13T14:31:55.475Z,6.35
2022-09-13T14:34:30.314Z,4.30
2022-09-13T14:37:00.083Z,5.97
2022-09-13T14:39:27.633Z,5.53
2022-09-13T14:42:16.636Z,5.32
2022-09-13T14:44:47.271Z,6.07
2022-09-13T14:47:16.525Z,5.40
2022-09-13T14:49:49.324Z,7.45
2022-09-13T14:52:34.268Z,5.65
2022-09-13T14:55:06.866Z,7.10
2022-09-13T14:57:39.118Z,7.70
2022-09-13T15:00:14.671Z,9.20
2022-09-13T15:02:51.149Z,9.10
2022-09-13T15:05:20.604Z,5.68
2022-09-13T15:07:47.538Z,6.63
2022-09-13T15:10:42.324Z,20.02
2022-09-13T15:13:10.852Z,6.47
2022-09-13T15:15:41.746Z,4.30
2022-09-13T15:18:20.428Z,4.53
2022-09-13T15:20:51.776Z,8.00
2022-09-13T15:23:26.332Z,5.40
2022-09-13T15:26:01.751Z,7.33
2022-09-13T15:28:48.713Z,6.15
2022-09-13T15:31:22.286Z,5.93
2022-09-13T15:33:49.826Z,5.03
2022-09-13T15:36:28.356Z,9.18
2022-09-13T15:39:20.251Z,6.53
2022-09-13T15:41:52.684Z,6.03
2022-09-13T15:44:19.589Z,5.95
2022-09-13T15:46:54.828Z,10.35
2022-09-13T15:49:24.662Z,7.40
2022-09-13T15:52:04.305Z,6.63
2022-09-13T15:54:34.271Z,7.88
2022-09-13T15:57:01.111Z,5.30
2022-09-13T15:59:27.780Z,4.93
2022-09-13T16:01:55.946Z,5.78
2022-09-13T16:04:22.858Z,7.07
2022-09-13T16:06:49.703Z,6.07
2022-09-13T16:09:21.596Z,5.13
2022-09-13T16:11:49.470Z,4.07
2022-09-13T16:14:17.095Z,3.75
2022-09-13T16:16:44.517Z,7.20
2022-09-13T16:19:16.753Z,5.00
2022-09-13T16:21:43.914Z,5.72
2022-09-13T16:24:10.767Z,6.20
2022-09-13T16:26:38.111Z,5.15
2022-09-13T16:29:04.857Z,6.00
2022-09-13T16:31:31.691Z,8.38
2022-09-13T16:33:58.463Z,4.63
2022-09-13T16:36:27.630Z,10.80
2022-09-13T16:38:55.195Z,3.40
2022-09-13T16:41:22.544Z,4.77
2022-09-13T16:43:49.373Z,8.55
2022-09-13T16:46:16.540Z,4.45
2022-09-13T16:48:43.535Z,4.32
2022-09-13T16:51:12.686Z,4.82
2022-09-13T16:53:42.005Z,4.43
2022-09-13T16:56:11.633Z,4.57
2022-09-13T16:58:39.555Z,6.45
2022-09-13T17:01:07.827Z,6.15
2022-09-13T17:03:36.317Z,3.05
2022-09-13T17:06:08.498Z,4.80
2022-09-13T17:08:36.756Z,6.93
2022-09-13T17:11:09.393Z,3.80
2022-09-13T17:13:37.775Z,6.70
2022-09-13T17:16:06.710Z,4.05
2022-09-13T17:18:34.206Z,4.03
2022-09-13T17:21:01.012Z,3.03
2022-09-13T17:23:28.365Z,5.65
2022-09-13T17:25:54.989Z,5.10
2022-09-13T17:28:21.858Z,3.20
2022-09-13T17:30:48.470Z,8.23
2022-09-13T17:33:15.008Z,5.15
2022-09-13T17:35:43.670Z,5.47
2022-09-13T17:38:10.333Z,6.28
2022-09-13T17:40:36.902Z,4.90
2022-09-13T17:43:04.054Z,3.93
2022-09-13T17:45:31.229Z,5.38
2022-09-13T17:47:58.969Z,8.13
2022-09-13T17:50:25.574Z,4.57
2022-09-13T17:52:52.210Z,9.25
2022-09-13T17:55:19.178Z,4.00
2022-09-13T17:57:49.832Z,3.67
2022-09-13T18:00:19.733Z,5.90
2022-09-13T18:02:46.720Z,5.97
2022-09-13T18:05:13.963Z,4.53
2022-09-13T18:07:40.639Z,5.53
2022-09-13T18:10:16.198Z,4.82
2022-09-13T18:12:54.145Z,6.47
2022-09-13T18:15:20.842Z,5.97
2022-09-13T18:17:47.420Z,5.85
2022-09-13T18:20:14.029Z,10.37
2022-09-13T18:22:40.584Z,6.70
2022-09-13T18:25:07.790Z,7.40
2022-09-13T18:27:34.329Z,6.15
2022-09-13T18:30:01.331Z,7.85
2022-09-13T18:32:27.849Z,5.50
2022-09-13T18:34:54.442Z,7.78
2022-09-13T18:37:20.981Z,5.80
2022-09-13T18:39:47.961Z,8.80
2022-09-13T18:42:14.565Z,5.35
2022-09-13T18:44:41.313Z,6.47
2022-09-13T18:47:09.069Z,5.57
2022-09-13T18:49:35.589Z,5.30
2022-09-13T18:52:02.530Z,10.00
2022-09-13T18:54:29.644Z,5.75
2022-09-13T18:56:58.196Z,4.30
2022-09-13T18:59:25.612Z,7.22
2022-09-13T19:01:52.852Z,5.40
2022-09-13T19:04:21.359Z,4.68
2022-09-13T19:06:51.346Z,2.95
2022-09-13T19:09:21.115Z,4.23
2022-09-13T19:11:50.655Z,3.65
2022-09-13T19:14:23.371Z,9.25
2022-09-13T19:16:51.351Z,7.40
2022-09-13T19:19:19.552Z,8.10
2022-09-13T19:21:46.659Z,7.80
2022-09-13T19:24:18.699Z,6.00
2022-09-13T19:26:48.013Z,6.03
2022-09-13T19:29:18.056Z,6.18
2022-09-13T19:31:48.438Z,6.82
2022-09-13T19:34:17.462Z,4.10
2022-09-13T19:36:44.434Z,7.53
2022-09-13T19:39:11.761Z,5.32
2022-09-13T19:41:39.287Z,9.20
2022-09-13T19:44:06.020Z,7.10
2022-09-13T19:46:38.484Z,8.20
2022-09-13T19:49:06.547Z,9.95
2022-09-13T19:51:36.202Z,13.65
2022-09-13T19:54:03.923Z,9.23
2022-09-13T19:56:37.330Z,10.80
2022-09-13T19:59:04.161Z,10.07
2022-09-13T20:01:34.065Z,7.78
2022-09-13T20:04:03.589Z,9.48
2022-09-13T20:06:36.435Z,8.90
2022-09-13T20:09:04.229Z,6.97
2022-09-13T20:11:31.567Z,5.33
2022-09-13T20:13:59.382Z,7.35
2022-09-13T20:16:28.747Z,5.60
2022-09-13T20:18:57.303Z,7.60
2022-09-13T20:21:25.288Z,6.30
2022-09-13T20:23:55.540Z,8.20
2022-09-13T20:26:25.692Z,6.50
2022-09-13T20:29:06.003Z,8.32
2022-09-13T20:31:35.994Z,7.10
2022-09-13T20:34:05.781Z,8.27
2022-09-13T20:36:34.084Z,5.20
2022-09-13T20:39:03.752Z,9.70
2022-09-13T20:41:31.618Z,8.90
2022-09-13T20:43:59.794Z,9.43
2022-09-13T20:46:27.334Z,9.82
2022-09-13T20:48:54.057Z,5.27
2022-09-13T20:51:22.335Z,9.68
2022-09-13T20:53:55.880Z,8.27
2022-09-13T20:56:23.517Z,7.70
2022-09-13T20:58:57.049Z,8.48
2022-09-13T21:01:24.849Z,6.77
2022-09-13T21:03:53.854Z,9.00
2022-09-13T21:06:23.332Z,6.38
2022-09-13T21:08:50.891Z,8.93
2022-09-13T21:11:23.042Z,11.45
2022-09-13T21:13:56.063Z,9.47
2022-09-13T21:16:25.894Z,7.13
2022-09-13T21:18:53.762Z,7.70
2022-09-13T21:21:31.362Z,7.13
2022-09-13T21:24:00.497Z,5.38
2022-09-13T21:26:28.817Z,8.97
2022-09-13T21:28:56.908Z,9.77
2022-09-13T21:31:25.703Z,4.00
2022-09-13T21:33:58.318Z,8.73
2022-09-13T21:36:26.790Z,5.50
2022-09-13T21:38:54.441Z,10.20
2022-09-13T21:41:22.553Z,6.80
2022-09-13T21:43:49.223Z,5.88
2022-09-13T21:46:19.775Z,6.03
2022-09-13T21:48:57.894Z,6.38
2022-09-13T21:51:29.095Z,8.00
2022-09-13T21:53:59.190Z,6.45
2022-09-13T21:56:28.146Z,10.07
2022-09-13T21:59:00.678Z,6.32
2022-09-13T22:01:30.378Z,8.55
2022-09-13T22:03:57.627Z,5.00
2022-09-13T22:06:24.977Z,5.15
2022-09-13T22:08:56.827Z,7.88
2022-09-13T22:11:31.385Z,7.88
2022-09-13T22:13:58.823Z,5.00
2022-09-13T22:16:26.681Z,7.93
2022-09-13T22:18:56.182Z,5.38
2022-09-13T22:21:27.312Z,11.10
2022-09-13T22:23:54.401Z,6.95
2022-09-13T22:26:24.019Z,11.40
2022-09-13T22:28:51.545Z,6.00
2022-09-13T22:31:24.378Z,9.23
2022-09-13T22:33:52.043Z,9.95
2022-09-13T22:36:19.627Z,8.57
2022-09-13T22:38:51.904Z,9.10
2022-09-13T22:41:25.282Z,9.17
2022-09-13T22:43:52.547Z,5.15
2022-09-13T22:46:21.036Z,9.95
2022-09-13T22:48:47.735Z,8.13
2022-09-13T22:51:16.392Z,6.35
2022-09-13T22:53:44.721Z,8.70
2022-09-13T22:56:21.900Z,4.10
2022-09-13T22:58:52.588Z,15.63
2022-09-13T23:01:20.076Z,6.85
2022-09-13T23:03:48.353Z,10.20
2022-09-13T23:06:18.946Z,6.27
2022-09-13T23:08:46.882Z,9.80
2022-09-13T23:11:15.726Z,13.02
2022-09-13T23:13:43.342Z,5.93
2022-09-13T23:16:15.856Z,5.22
2022-09-13T23:18:42.685Z,4.87
2022-09-13T23:21:09.250Z,9.70
2022-09-13T23:23:36.267Z,9.32
2022-09-13T23:26:14.575Z,10.00
2022-09-13T23:28:41.177Z,10.63
2022-09-13T23:31:08.758Z,8.03
2022-09-13T23:33:38.377Z,10.98
2022-09-13T23:36:05.781Z,7.28
2022-09-13T23:38:32.394Z,12.88
2022-09-13T23:40:59.111Z,8.93
2022-09-13T23:43:25.722Z,6.67
2022-09-13T23:45:52.220Z,7.20
2022-09-13T23:48:18.946Z,5.75
2022-09-13T23:50:45.755Z,7.80
2022-09-13T23:53:12.282Z,6.70
2022-09-13T23:55:38.828Z,8.70
2022-09-13T23:58:05.596Z,11.32
